createdAt,value
2023-01-02T00:00:39.413Z,7.07
2023-01-02T00:03:42.673Z,7.97
2023-01-02T00:06:45.922Z,7.83
2023-01-02T00:09:50.462Z,8.10
2023-01-02T00:12:56.797Z,8.53
2023-01-02T00:15:59.989Z,8.23
2023-01-02T00:19:03.654Z,8.23
2023-01-02T00:22:06.687Z,7.10
2023-01-02T00:25:11.328Z,7.40
2023-01-02T00:28:14.433Z,8.10
2023-01-02T00:31:17.530Z,7.13
2023-01-02T00:34:20.931Z,7.70
2023-01-02T00:37:23.997Z,7.30
2023-01-02T00:40:30.178Z,7.00
2023-01-02T00:43:35.741Z,8.00
2023-01-02T00:46:38.878Z,7.07
2023-01-02T00:49:42.000Z,6.47
2023-01-02T00:52:45.870Z,8.27
2023-01-02T00:55:50.765Z,6.63
2023-01-02T00:58:53.822Z,6.97
2023-01-02T01:01:57.098Z,7.13
2023-01-02T01:05:00.299Z,7.97
2023-01-02T01:08:03.404Z,7.47
2023-01-02T01:11:09.423Z,7.43
2023-01-02T01:14:12.509Z,7.17
2023-01-02T01:17:18.352Z,7.83
2023-01-02T01:20:21.416Z,6.60
2023-01-02T01:23:24.467Z,6.73
2023-01-02T01:26:29.124Z,7.57
2023-01-02T01:29:32.478Z,7.07
2023-01-02T01:32:35.787Z,6.10
2023-01-02T01:35:39.095Z,6.33
2023-01-02T01:38:42.434Z,6.53
2023-01-02T01:41:46.919Z,7.00
2023-01-02T01:44:52.032Z,7.03
2023-01-02T01:47:58.304Z,7.00
2023-01-02T01:51:01.704Z,7.57
2023-01-02T01:54:09.654Z,7.63
2023-01-02T01:57:17.674Z,7.73
2023-01-02T02:00:21.196Z,7.47
2023-01-02T02:03:27.798Z,7.00
2023-01-02T02:06:31.382Z,6.90
2023-01-02T02:09:42.095Z,6.53
2023-01-02T02:12:46.538Z,5.87
2023-01-02T02:16:00.752Z,6.63
2023-01-02T02:19:48.652Z,5.80
2023-01-02T02:23:45.555Z,6.53
2023-01-02T02:27:04.503Z,6.50
2023-01-02T02:30:14.028Z,6.50
2023-01-02T02:33:34.106Z,6.37
2023-01-02T02:36:46.813Z,5.57
2023-01-02T02:40:04.399Z,6.23
2023-01-02T02:43:19.157Z,6.27
2023-01-02T02:46:29.935Z,5.90
2023-01-02T02:49:46.329Z,6.17
2023-01-02T02:52:59.649Z,5.47
2023-01-02T02:56:07.540Z,5.90
2023-01-02T02:59:12.143Z,5.60
2023-01-02T03:02:18.050Z,5.83
2023-01-02T03:05:33.245Z,6.03
2023-01-02T03:08:46.146Z,5.83
2023-01-02T03:11:56.170Z,6.20
2023-01-02T03:15:13.261Z,5.87
2023-01-02T03:18:27.279Z,6.33
2023-01-02T03:21:36.726Z,5.57
2023-01-02T03:24:42.609Z,6.73
2023-01-02T03:27:47.538Z,6.57
2023-01-02T03:30:59.210Z,6.00
2023-01-02T03:34:10.320Z,6.20
2023-01-02T03:37:19.534Z,6.60
2023-01-02T03:40:28.368Z,6.53
2023-01-02T03:43:36.158Z,5.70
2023-01-02T03:46:44.970Z,6.90
2023-01-02T03:49:53.559Z,5.27
2023-01-02T03:52:56.837Z,5.60
2023-01-02T03:56:13.017Z,6.17
2023-01-02T03:59:26.924Z,6.13
2023-01-02T04:02:37.521Z,5.70
2023-01-02T04:05:46.837Z,6.47
2023-01-02T04:08:57.133Z,7.03
2023-01-02T04:12:05.672Z,7.03
2023-01-02T04:15:15.264Z,6.97
2023-01-02T04:18:26.553Z,7.03
2023-01-02T04:21:35.882Z,7.17
2023-01-02T04:24:43.777Z,7.43
2023-01-02T04:27:52.497Z,6.47
2023-01-02T04:31:03.497Z,6.40
2023-01-02T04:34:10.715Z,7.03
2023-01-02T04:37:30.121Z,6.20
2023-01-02T04:40:36.596Z,6.90
2023-01-02T04:43:39.922Z,7.00
2023-01-02T04:46:43.283Z,7.13
2023-01-02T04:49:46.352Z,7.30
2023-01-02T04:52:50.692Z,6.97
2023-01-02T04:55:57.237Z,6.90
2023-01-02T04:59:00.294Z,7.10
2023-01-02T05:02:03.525Z,6.33
2023-01-02T05:05:09.564Z,7.67
2023-01-02T05:08:16.370Z,6.40
2023-01-02T05:11:21.356Z,6.93
2023-01-02T05:14:24.541Z,5.87
2023-01-02T05:17:27.594Z,6.03
2023-01-02T05:20:30.757Z,6.50
2023-01-02T05:23:50.222Z,6.13
2023-01-02T05:26:53.472Z,5.77
2023-01-02T05:29:56.533Z,6.60
2023-01-02T05:32:59.710Z,6.47
2023-01-02T05:36:04.961Z,6.27
2023-01-02T05:39:12.128Z,6.43
2023-01-02T05:42:15.218Z,6.03
2023-01-02T05:45:18.375Z,5.57
2023-01-02T05:48:21.398Z,6.27
2023-01-02T05:51:24.491Z,5.73
2023-01-02T05:54:28.898Z,6.23
2023-01-02T05:57:31.915Z,6.10
2023-01-02T06:00:35.342Z,6.30
2023-01-02T06:03:38.887Z,6.00
2023-01-02T06:06:42.665Z,6.30
2023-01-02T06:09:47.704Z,5.63
2023-01-02T06:12:50.756Z,5.53
2023-01-02T06:15:55.796Z,6.00
2023-01-02T06:18:59.698Z,6.10
2023-01-02T06:22:02.786Z,6.63
2023-01-02T06:25:09.023Z,5.97
2023-01-02T06:28:12.019Z,5.37
2023-01-02T06:31:18.482Z,5.47
2023-01-02T06:34:21.575Z,5.80
2023-01-02T06:37:24.835Z,6.07
2023-01-02T06:40:29.267Z,5.83
2023-01-02T06:43:33.255Z,5.90
2023-01-02T06:46:36.296Z,5.60
2023-01-02T06:49:39.319Z,6.77
2023-01-02T06:52:42.330Z,5.33
2023-01-02T06:55:53.447Z,5.97
2023-01-02T06:58:56.467Z,6.80
2023-01-02T07:01:59.550Z,6.67
2023-01-02T07:05:02.599Z,6.27
2023-01-02T07:08:06.129Z,5.47
2023-01-02T07:11:13.565Z,5.37
2023-01-02T07:14:16.778Z,5.33
2023-01-02T07:17:19.869Z,5.70
2023-01-02T07:20:23.116Z,5.27
2023-01-02T07:23:26.291Z,5.43
2023-01-02T07:26:34.067Z,5.27
2023-01-02T07:29:37.436Z,5.93
2023-01-02T07:32:40.539Z,5.40
2023-01-02T07:35:44.139Z,5.33
2023-01-02T07:38:52.088Z,5.40
2023-01-02T07:41:56.453Z,4.50
2023-01-02T07:44:59.490Z,6.90
2023-01-02T07:48:02.588Z,5.30
2023-01-02T07:51:07.757Z,5.53
2023-01-02T07:54:10.931Z,5.70
2023-01-02T07:57:15.250Z,5.90
2023-01-02T08:00:19.971Z,5.23
2023-01-02T08:03:23.470Z,5.50
2023-01-02T08:06:26.808Z,5.93
2023-01-02T08:09:29.906Z,5.43
2023-01-02T08:12:34.351Z,5.30
2023-01-02T08:15:37.382Z,4.57
2023-01-02T08:18:40.634Z,4.83
2023-01-02T08:21:44.115Z,4.67
2023-01-02T08:24:50.334Z,4.77
2023-01-02T08:27:55.011Z,5.13
2023-01-02T08:30:58.478Z,4.40
2023-01-02T08:34:01.845Z,4.27
2023-01-02T08:37:05.022Z,4.73
2023-01-02T08:40:12.280Z,4.67
2023-01-02T08:43:16.600Z,5.00
2023-01-02T08:46:19.828Z,5.33
2023-01-02T08:49:22.948Z,5.63
2023-01-02T08:52:26.198Z,5.57
2023-01-02T08:55:29.275Z,4.93
2023-01-02T08:58:33.801Z,4.83
2023-01-02T09:01:38.032Z,5.27
2023-01-02T09:04:41.351Z,4.83
2023-01-02T09:07:44.402Z,4.83
2023-01-02T09:10:47.417Z,4.10
2023-01-02T09:13:52.425Z,4.43
2023-01-02T09:17:03.985Z,4.50
2023-01-02T09:20:07.797Z,4.57
2023-01-02T09:23:10.829Z,5.80
2023-01-02T09:26:14.954Z,4.80
2023-01-02T09:29:19.764Z,4.30
2023-01-02T09:32:22.953Z,5.03
2023-01-02T09:35:25.983Z,4.87
2023-01-02T09:38:29.259Z,4.40
2023-01-02T09:41:36.555Z,4.97
2023-01-02T09:44:46.766Z,4.90
2023-01-02T09:47:51.588Z,4.45
2023-01-02T09:50:55.036Z,5.03
2023-01-02T09:53:58.290Z,4.53
2023-01-02T09:57:16.892Z,4.47
2023-01-02T10:00:24.692Z,4.67
2023-01-02T10:03:37.059Z,4.67
2023-01-02T10:06:47.718Z,5.17
2023-01-02T10:09:57.594Z,4.43
2023-01-02T10:13:10.804Z,4.60
2023-01-02T10:16:20.397Z,4.87
2023-01-02T10:19:34.195Z,4.00
2023-01-02T10:22:43.105Z,4.30
2023-01-02T10:25:53.173Z,5.50
2023-01-02T10:29:07.816Z,5.20
2023-01-02T10:32:17.608Z,4.93
2023-01-02T10:35:35.314Z,4.70
2023-01-02T10:38:40.331Z,4.40
2023-01-02T10:41:47.913Z,4.35
2023-01-02T10:44:51.869Z,4.77
2023-01-02T10:47:56.182Z,5.28
2023-01-02T10:51:04.520Z,3.90
2023-01-02T10:54:10.862Z,4.55
2023-01-02T10:57:20.553Z,4.32
2023-01-02T11:00:30.371Z,4.57
2023-01-02T11:03:35.397Z,4.47
2023-01-02T11:06:52.472Z,4.63
2023-01-02T11:10:10.062Z,4.53
2023-01-02T11:13:24.938Z,4.20
2023-01-02T11:16:30.366Z,4.72
2023-01-02T11:19:41.714Z,4.72
2023-01-02T11:22:45.471Z,4.20
2023-01-02T11:25:48.813Z,5.20
2023-01-02T11:28:55.474Z,4.50
2023-01-02T11:32:02.361Z,4.80
2023-01-02T11:35:35.736Z,4.35
2023-01-02T11:38:45.870Z,3.97
2023-01-02T11:42:13.725Z,4.82
2023-01-02T11:45:19.024Z,5.05
2023-01-02T11:48:24.845Z,4.60
2023-01-02T11:51:31.218Z,4.70
2023-01-02T11:54:44.102Z,4.37
2023-01-02T11:57:54.207Z,4.40
2023-01-02T12:01:11.180Z,3.75
2023-01-02T12:04:14.970Z,4.53
2023-01-02T12:07:43.235Z,4.37
2023-01-02T12:10:58.585Z,5.00
2023-01-02T12:14:13.427Z,5.10
2023-01-02T12:17:25.389Z,4.10
2023-01-02T12:20:41.589Z,4.85
2023-01-02T12:24:20.568Z,4.53
2023-01-02T12:27:33.660Z,4.60
2023-01-02T12:30:46.304Z,4.82
2023-01-02T12:34:00.530Z,4.95
2023-01-02T12:37:22.764Z,4.60
2023-01-02T12:40:51.911Z,4.70
2023-01-02T12:44:18.462Z,4.50
2023-01-02T12:48:02.232Z,4.50
2023-01-02T12:51:17.564Z,4.10
2023-01-02T12:54:42.615Z,4.40
2023-01-02T12:57:56.533Z,4.23
2023-01-02T13:01:19.294Z,4.90
2023-01-02T13:04:27.404Z,4.43
2023-01-02T13:07:33.256Z,4.40
2023-01-02T13:10:36.871Z,3.80
2023-01-02T13:13:41.610Z,4.20
2023-01-02T13:16:51.206Z,4.17
2023-01-02T13:20:01.436Z,4.17
2023-01-02T13:23:18.149Z,4.67
2023-01-02T13:26:24.884Z,3.80
2023-01-02T13:29:41.914Z,3.97
2023-01-02T13:32:45.035Z,4.03
2023-01-02T13:35:48.420Z,4.13
2023-01-02T13:38:54.959Z,4.57
2023-01-02T13:42:19.930Z,4.60
2023-01-02T13:45:29.300Z,3.97
2023-01-02T13:48:36.413Z,4.65
2023-01-02T13:51:39.804Z,4.77
2023-01-02T13:55:31.490Z,4.23
2023-01-02T13:58:45.497Z,4.07
2023-01-02T14:02:17.197Z,4.33
2023-01-02T14:05:59.785Z,3.77
2023-01-02T14:09:12.720Z,4.50
2023-01-02T14:12:16.148Z,5.07
2023-01-02T14:15:23.249Z,4.20
2023-01-02T14:18:31.127Z,4.87
2023-01-02T14:21:37.306Z,4.67
2023-01-02T14:24:44.278Z,5.37
2023-01-02T14:27:52.542Z,4.43
2023-01-02T14:30:57.037Z,4.03
2023-01-02T14:34:02.758Z,4.23
2023-01-02T14:37:12.203Z,4.30
2023-01-02T14:40:36.527Z,4.80
2023-01-02T14:43:42.022Z,4.82
2023-01-02T14:46:45.743Z,4.97
2023-01-02T14:49:57.721Z,4.53
2023-01-02T14:53:21.425Z,4.50
2023-01-02T14:57:05.900Z,4.07
2023-01-02T15:00:44.543Z,4.63
2023-01-02T15:04:11.130Z,4.23
2023-01-02T15:07:26.235Z,4.37
2023-01-02T15:10:32.276Z,4.53
2023-01-02T15:13:34.371Z,4.47
2023-01-02T15:17:00.997Z,4.30
2023-01-02T15:20:04.749Z,4.10
2023-01-02T15:23:21.338Z,4.77
2023-01-02T15:26:32.813Z,4.70
2023-01-02T15:29:40.057Z,4.90
2023-01-02T15:32:49.683Z,5.93
2023-01-02T15:35:57.823Z,3.47
2023-01-02T15:39:12.300Z,4.43
2023-01-02T15:42:37.679Z,4.60
2023-01-02T15:45:45.732Z,4.70
2023-01-02T15:48:51.712Z,4.33
2023-01-02T15:51:57.468Z,3.90
2023-01-02T15:55:02.146Z,3.43
2023-01-02T15:58:23.411Z,2.83
2023-01-02T16:01:27.487Z,4.13
2023-01-02T16:04:37.968Z,2.90
2023-01-02T16:07:42.045Z,3.73
2023-01-02T16:16:15.916Z,3.20
2023-01-02T16:19:28.197Z,2.90
2023-01-02T16:22:37.280Z,3.10
2023-01-02T16:25:47.799Z,3.57
2023-01-02T16:28:51.705Z,2.90
2023-01-02T16:36:43.176Z,3.30
2023-01-02T16:40:14.656Z,2.50
2023-01-02T16:43:25.800Z,3.20
2023-01-02T16:46:38.217Z,2.97
2023-01-02T16:50:01.697Z,2.53
2023-01-02T16:53:52.818Z,2.53
2023-01-02T16:57:02.630Z,3.00
2023-01-02T17:00:09.843Z,3.27
2023-01-02T17:03:20.091Z,3.13
2023-01-02T17:06:24.300Z,3.13
2023-01-02T17:09:30.163Z,3.10
2023-01-02T17:12:35.876Z,2.47
2023-01-02T17:15:44.179Z,2.40
2023-01-02T17:18:47.282Z,2.60
2023-01-02T17:21:51.233Z,2.57
2023-01-02T17:24:55.671Z,2.90
2023-01-02T17:28:12.419Z,2.93
2023-01-02T17:31:19.934Z,2.80
2023-01-02T17:34:25.911Z,2.70
2023-01-02T17:37:29.239Z,2.37
2023-01-02T17:40:32.368Z,2.50
2023-01-02T17:43:35.426Z,2.47
2023-01-02T17:50:05.481Z,3.20
2023-01-02T17:53:08.861Z,2.63
2023-01-02T17:56:21.801Z,2.47
2023-01-02T17:59:26.259Z,2.80
2023-01-02T18:02:30.768Z,3.37
2023-01-02T18:05:36.428Z,2.70
2023-01-02T18:08:39.870Z,2.87
2023-01-02T18:11:43.164Z,2.60
2023-01-02T18:14:47.166Z,2.70
2023-01-02T18:17:51.592Z,2.53
2023-01-02T18:20:54.723Z,3.07
2023-01-02T18:24:00.632Z,3.00
2023-01-02T18:27:19.129Z,2.90
2023-01-02T18:30:26.043Z,2.60
2023-01-02T18:33:31.448Z,3.40
2023-01-02T18:36:34.967Z,2.77
2023-01-02T18:39:43.351Z,2.90
2023-01-02T18:42:48.742Z,2.90
2023-01-02T18:45:55.303Z,3.33
2023-01-02T18:49:03.039Z,2.70
2023-01-02T18:52:22.501Z,3.03
2023-01-02T18:55:35.436Z,3.03
2023-01-02T18:58:47.170Z,2.90
2023-01-02T19:01:52.804Z,3.00
2023-01-02T19:04:59.242Z,3.00
2023-01-02T19:08:19.796Z,3.53
2023-01-02T19:11:49.062Z,2.83
2023-01-02T19:14:54.480Z,3.13
2023-01-02T19:18:00.005Z,3.03
2023-01-02T19:21:17.771Z,3.77
2023-01-02T19:24:25.136Z,3.43
2023-01-02T19:27:34.946Z,2.80
2023-01-02T19:30:39.549Z,2.83
2023-01-02T19:33:44.635Z,3.17
2023-01-02T19:36:55.760Z,3.40
2023-01-02T19:40:02.696Z,3.17
2023-01-02T19:43:05.753Z,3.30
2023-01-02T19:46:09.010Z,3.37
2023-01-02T19:49:12.149Z,3.57
2023-01-02T19:52:19.418Z,3.07
2023-01-02T19:55:22.571Z,3.37
2023-01-02T19:58:25.787Z,2.93
2023-01-02T20:01:29.372Z,2.80
2023-01-02T20:04:32.616Z,2.93
2023-01-02T20:07:36.925Z,2.93
2023-01-02T20:10:39.987Z,2.60
2023-01-02T20:13:44.817Z,2.57
2023-01-02T20:16:47.931Z,3.70
2023-01-02T20:19:51.024Z,2.60
2023-01-02T20:22:55.693Z,3.00
2023-01-02T20:25:58.712Z,3.70
2023-01-02T20:29:03.511Z,2.87
2023-01-02T20:32:07.241Z,3.00
2023-01-02T20:35:10.579Z,3.50
2023-01-02T20:38:15.333Z,4.90
2023-01-02T20:41:18.928Z,4.53
2023-01-02T20:44:22.216Z,4.00
2023-01-02T20:47:25.417Z,3.80
2023-01-02T20:50:28.561Z,3.43
2023-01-02T20:53:33.577Z,2.90
2023-01-02T20:56:38.472Z,3.13
2023-01-02T20:59:41.688Z,3.20
2023-01-02T21:02:45.087Z,3.20
2023-01-02T21:05:48.375Z,3.00
2023-01-02T21:08:52.719Z,3.30
2023-01-02T21:11:55.778Z,3.20
2023-01-02T21:14:59.083Z,3.83
2023-01-02T21:18:02.822Z,4.07
2023-01-02T21:21:10.591Z,4.30
2023-01-02T21:24:15.080Z,3.60
2023-01-02T21:27:18.174Z,3.50
2023-01-02T21:30:21.280Z,3.67
2023-01-02T21:33:26.784Z,3.80
2023-01-02T21:36:30.280Z,3.90
2023-01-02T21:39:34.694Z,3.47
2023-01-02T21:42:44.341Z,4.13
2023-01-02T21:45:48.334Z,3.53
2023-01-02T21:48:51.532Z,3.40
2023-01-02T21:51:54.525Z,4.17
2023-01-02T21:54:58.951Z,4.60
2023-01-02T21:58:12.952Z,5.07
2023-01-02T22:01:17.911Z,4.70
2023-01-02T22:04:21.440Z,3.50
2023-01-02T22:07:32.691Z,3.93
2023-01-02T22:10:40.229Z,3.53
2023-01-02T22:13:43.316Z,3.83
2023-01-02T22:16:46.702Z,3.10
2023-01-02T22:19:49.978Z,3.87
2023-01-02T22:22:53.152Z,3.07
2023-01-02T22:25:57.572Z,3.87
2023-01-02T22:29:00.636Z,4.00
2023-01-02T22:32:04.203Z,4.00
2023-01-02T22:35:09.945Z,3.73
2023-01-02T22:38:13.026Z,3.77
2023-01-02T22:41:17.827Z,4.00
2023-01-02T22:44:26.003Z,3.30
2023-01-02T22:47:33.636Z,3.80
2023-01-02T22:50:44.554Z,3.83
2023-01-02T22:53:47.872Z,3.77
2023-01-02T22:56:52.744Z,3.17
2023-01-02T22:59:55.901Z,4.13
2023-01-02T23:02:59.286Z,5.20
2023-01-02T23:06:02.393Z,4.77
2023-01-02T23:09:05.476Z,4.30
2023-01-02T23:12:10.203Z,4.37
2023-01-02T23:15:14.674Z,4.47
2023-01-02T23:18:35.515Z,4.97
2023-01-02T23:21:40.296Z,4.33
2023-01-02T23:24:43.749Z,4.50
2023-01-02T23:27:48.356Z,3.67
2023-01-02T23:30:51.406Z,4.37
2023-01-02T23:33:54.618Z,4.27
2023-01-02T23:37:00.668Z,4.83
2023-01-02T23:40:03.778Z,4.37
2023-01-02T23:43:08.368Z,3.90
2023-01-02T23:46:11.460Z,4.37
2023-01-02T23:49:18.401Z,3.77
2023-01-02T23:52:21.720Z,4.10
2023-01-02T23:55:24.928Z,5.13
2023-01-02T23:58:29.501Z,4.20
